createdAt,value
2022-12-05T00:02:33.833Z,4.68
2022-12-05T00:07:36.752Z,4.64
2022-12-05T00:12:40.719Z,4.48
2022-12-05T00:17:44.976Z,4.35
2022-12-05T00:22:48.107Z,4.54
2022-12-05T00:27:50.950Z,4.57
2022-12-05T00:32:55.078Z,4.68
2022-12-05T00:37:57.856Z,4.65
2022-12-05T00:43:00.683Z,4.62
2022-12-05T00:48:05.262Z,4.75
2022-12-05T00:53:08.055Z,4.76
2022-12-05T00:58:10.822Z,4.71
2022-12-05T01:03:15.149Z,4.71
2022-12-05T01:08:18.131Z,4.80
2022-12-05T01:13:20.965Z,4.74
2022-12-05T01:18:26.468Z,4.78
2022-12-05T01:23:29.258Z,4.80
2022-12-05T01:28:32.146Z,4.81
2022-12-05T01:33:36.980Z,4.86
2022-12-05T01:38:40.051Z,4.76
2022-12-05T01:43:58.052Z,4.77
2022-12-05T01:49:06.854Z,4.76
2022-12-05T01:54:11.325Z,4.75
2022-12-05T01:59:15.084Z,4.82
2022-12-05T02:04:19.340Z,4.78
2022-12-05T02:09:22.792Z,4.91
2022-12-05T02:14:38.434Z,4.95
2022-12-05T02:19:58.724Z,5.05
2022-12-05T02:25:37.051Z,5.06
2022-12-05T02:30:44.698Z,5.06
2022-12-05T02:35:56.340Z,5.12
2022-12-05T02:41:11.691Z,5.07
2022-12-05T02:46:19.943Z,5.10
2022-12-05T02:51:26.377Z,5.15
2022-12-05T02:56:33.819Z,5.07
2022-12-05T03:01:38.124Z,4.98
2022-12-05T03:06:44.097Z,5.07
2022-12-05T03:11:50.281Z,5.12
2022-12-05T03:17:00.068Z,5.08
2022-12-05T03:22:07.591Z,5.04
2022-12-05T03:27:18.713Z,4.96
2022-12-05T03:32:28.976Z,5.04
2022-12-05T03:43:11.757Z,5.03
2022-12-05T03:48:23.632Z,5.11
2022-12-05T03:53:29.954Z,5.20
2022-12-05T03:58:38.119Z,5.24
2022-12-05T04:03:46.464Z,5.24
2022-12-05T04:08:54.336Z,5.24
2022-12-05T04:14:01.129Z,5.26
2022-12-05T04:19:11.195Z,5.27
2022-12-05T04:24:49.071Z,5.16
2022-12-05T04:30:00.341Z,5.12
2022-12-05T04:35:12.317Z,5.13
2022-12-05T04:40:21.186Z,5.12
2022-12-05T04:45:26.801Z,5.17
2022-12-05T04:50:34.496Z,5.12
2022-12-05T04:55:41.065Z,5.09
2022-12-05T05:00:51.497Z,5.06
2022-12-05T05:06:01.771Z,4.94
2022-12-05T05:11:12.109Z,4.97
2022-12-05T05:16:19.285Z,4.91
2022-12-05T05:21:26.443Z,4.86
2022-12-05T05:26:30.419Z,4.92
2022-12-05T05:31:33.712Z,4.86
2022-12-05T05:36:39.154Z,4.92
2022-12-05T05:41:42.427Z,5.00
2022-12-05T05:46:45.404Z,4.97
2022-12-05T05:51:49.659Z,4.99
2022-12-05T05:56:52.734Z,4.88
2022-12-05T06:01:55.667Z,4.95
2022-12-05T06:07:00.418Z,4.97
2022-12-05T06:12:03.221Z,4.99
2022-12-05T06:17:06.120Z,5.08
2022-12-05T06:22:10.349Z,5.00
2022-12-05T06:27:13.237Z,5.02
2022-12-05T06:32:16.001Z,4.82
2022-12-05T06:37:20.209Z,4.85
2022-12-05T06:42:23.324Z,4.97
2022-12-05T06:47:26.277Z,4.79
2022-12-05T06:52:30.412Z,4.94
2022-12-05T06:57:33.531Z,4.75
2022-12-05T07:03:30.186Z,4.85
2022-12-05T07:08:48.500Z,4.84
2022-12-05T07:14:10.683Z,4.92
2022-12-05T07:26:13.081Z,4.91
2022-12-05T07:31:18.688Z,4.78
2022-12-05T07:36:23.610Z,4.68
2022-12-05T07:41:30.020Z,4.56
2022-12-05T07:46:33.699Z,4.45
2022-12-05T07:51:38.946Z,4.63
2022-12-05T07:56:47.956Z,4.61
2022-12-05T08:01:53.962Z,4.52
2022-12-05T08:06:56.891Z,4.48
2022-12-05T08:12:01.378Z,4.52
2022-12-05T08:17:07.100Z,4.38
2022-12-05T08:22:11.244Z,4.28
2022-12-05T08:27:15.895Z,4.25
2022-12-05T08:32:18.840Z,4.12
2022-12-05T08:37:21.772Z,4.16
2022-12-05T08:42:26.154Z,4.07
2022-12-05T08:47:29.875Z,4.10
2022-12-05T08:52:34.756Z,4.12
2022-12-05T08:57:39.268Z,4.07
2022-12-05T09:02:42.242Z,4.09
2022-12-05T09:07:45.427Z,4.25
2022-12-05T09:12:50.520Z,4.32
2022-12-05T09:18:06.556Z,4.30
2022-12-05T09:23:15.769Z,4.27
2022-12-05T09:28:28.077Z,4.25
2022-12-05T09:33:33.250Z,4.07
2022-12-05T09:38:42.466Z,3.88
2022-12-05T09:43:54.769Z,4.16
2022-12-05T09:49:00.222Z,4.12
2022-12-05T09:54:04.366Z,4.04
2022-12-05T09:59:20.541Z,4.00
2022-12-05T10:04:57.087Z,4.01
2022-12-05T10:10:40.895Z,3.76
2022-12-05T10:15:59.585Z,4.02
2022-12-05T10:21:13.592Z,4.02
2022-12-05T10:27:23.539Z,3.85
2022-12-05T10:32:38.102Z,4.06
2022-12-05T10:38:12.234Z,4.09
2022-12-05T10:43:26.172Z,4.05
2022-12-05T10:48:42.473Z,3.95
2022-12-05T10:54:00.189Z,3.94
2022-12-05T11:04:46.749Z,4.41
2022-12-05T11:09:49.882Z,4.41
2022-12-05T11:15:11.877Z,4.35
2022-12-05T11:20:54.639Z,4.24
2022-12-05T11:31:44.361Z,4.33
2022-12-05T11:45:46.418Z,4.37
2022-12-05T11:52:20.772Z,4.32
2022-12-05T12:17:58.697Z,4.59
2022-12-05T13:04:33.477Z,4.61
2022-12-05T13:09:45.121Z,4.57
2022-12-05T13:14:56.583Z,4.54
2022-12-05T13:20:03.871Z,4.57
2022-12-05T13:25:08.441Z,4.39
2022-12-05T13:30:20.985Z,4.17
2022-12-05T13:42:19.366Z,4.28
2022-12-05T13:47:36.533Z,4.57
2022-12-05T13:53:03.410Z,4.41
2022-12-05T13:58:51.351Z,4.44
2022-12-05T14:03:59.657Z,4.30
2022-12-05T14:09:04.991Z,4.30
2022-12-05T14:14:27.836Z,4.02
2022-12-05T15:00:01.955Z,4.03
2022-12-05T15:18:39.908Z,3.95
2022-12-05T15:23:45.670Z,3.90
2022-12-05T15:29:07.140Z,3.86
2022-12-05T15:34:22.287Z,3.63
2022-12-05T15:45:44.937Z,3.92
2022-12-05T15:56:59.176Z,3.85
2022-12-05T16:02:11.264Z,3.52
2022-12-05T16:07:16.664Z,3.81
2022-12-05T16:12:28.887Z,3.94
2022-12-05T16:17:43.769Z,3.96
2022-12-05T16:22:53.115Z,3.78
2022-12-05T16:28:01.944Z,3.82
2022-12-05T16:33:08.792Z,3.59
2022-12-05T16:38:16.283Z,3.38
2022-12-05T16:43:24.560Z,3.35
2022-12-05T16:48:29.428Z,3.36
2022-12-05T16:53:34.229Z,3.43
2022-12-05T16:58:37.024Z,3.32
2022-12-05T17:03:39.900Z,3.59
2022-12-05T17:08:44.054Z,3.71
2022-12-05T17:13:49.550Z,3.50
2022-12-05T17:18:52.586Z,3.59
2022-12-05T17:23:56.836Z,3.37
2022-12-05T17:28:59.793Z,3.71
2022-12-05T17:34:02.815Z,3.40
2022-12-05T17:39:08.828Z,3.35
2022-12-05T17:44:13.951Z,3.21
2022-12-05T17:49:17.877Z,3.29
2022-12-05T17:54:22.241Z,3.04
2022-12-05T17:59:25.092Z,3.15
2022-12-05T18:04:28.183Z,3.25
2022-12-05T18:09:32.908Z,3.13
2022-12-05T18:14:36.065Z,3.19
2022-12-05T18:19:39.637Z,3.06
2022-12-05T18:24:43.833Z,3.11
2022-12-05T18:29:48.589Z,3.28
2022-12-05T18:34:53.526Z,3.17
2022-12-05T18:39:57.833Z,3.20
2022-12-05T18:45:01.719Z,3.32
2022-12-05T18:50:05.465Z,3.31
2022-12-05T18:55:20.956Z,3.24
2022-12-05T19:00:31.625Z,3.12
2022-12-05T19:05:35.241Z,3.02
2022-12-05T19:10:39.446Z,3.02
2022-12-05T19:15:42.829Z,3.05
2022-12-05T19:21:21.028Z,3.20
2022-12-05T19:26:50.315Z,3.02
2022-12-05T19:31:53.422Z,3.00
2022-12-05T19:37:27.127Z,3.18
2022-12-05T19:42:39.524Z,3.31
2022-12-05T19:47:53.252Z,3.03
2022-12-05T19:53:20.635Z,3.43
2022-12-05T19:59:20.120Z,3.06
2022-12-05T20:11:36.421Z,3.21
2022-12-05T20:16:41.922Z,3.17
2022-12-05T20:22:07.636Z,3.14
2022-12-05T20:27:10.864Z,3.22
2022-12-05T20:32:18.685Z,3.13
2022-12-05T20:37:28.628Z,3.09
2022-12-05T20:42:46.636Z,3.23
2022-12-05T20:49:08.141Z,3.51
2022-12-05T20:54:27.980Z,3.59
2022-12-05T20:59:47.395Z,3.44
2022-12-05T21:05:55.685Z,3.46
2022-12-05T21:24:31.906Z,3.74
2022-12-05T21:41:53.618Z,3.30
2022-12-05T21:46:59.135Z,3.26
2022-12-05T21:52:03.109Z,3.26
2022-12-05T21:57:07.561Z,3.49
2022-12-05T22:02:11.126Z,3.58
2022-12-05T22:07:13.939Z,3.43
2022-12-05T22:12:18.270Z,3.39
2022-12-05T22:17:21.097Z,3.57
2022-12-05T22:22:24.061Z,3.43
2022-12-05T22:27:30.464Z,3.50
2022-12-05T22:32:33.428Z,3.62
2022-12-05T22:37:36.156Z,3.60
2022-12-05T22:42:40.324Z,3.65
2022-12-05T22:47:43.202Z,3.64
2022-12-05T22:52:45.957Z,3.63
2022-12-05T22:57:50.208Z,3.39
2022-12-05T23:02:54.040Z,3.34
2022-12-05T23:07:56.964Z,3.20
2022-12-05T23:13:01.278Z,3.14
2022-12-05T23:18:04.891Z,3.30
2022-12-05T23:23:07.774Z,3.24
2022-12-05T23:28:12.032Z,3.28
2022-12-05T23:33:14.977Z,3.14
2022-12-05T23:38:17.733Z,3.03
2022-12-05T23:43:21.873Z,2.97
2022-12-05T23:48:25.283Z,2.98
2022-12-05T23:53:29.154Z,3.00
2022-12-05T23:58:33.944Z,2.95
